Pleasantville, Tennessee
Current Conditions -  °F | °C
As of 2:35 AM on Friday 19 Dec 2014 (Local Time) from KPVE Reporting Station
Overcast Overcast  
Wind Chill: 37°   Ceiling: 4400
Heat Index: 37°   Visibility: 10mi
Dew Point: 34°   Wind: 3mph
Humidity: 87%   Direction: 20°NNE
Pressure: 30.21"   Gusts: NA
Location:  35.67°N, 87.7°W
Report Text: KPVE 190835Z AUTO 02003KT 10SM OVC044 03/01 A3021 RMK
Loading
Personal Weather Stations






























Interactive Weather Map New forecast layout! Learn more

10-Day Weather Forecast

Advertisements
Track Severe Weather on mobile